sensor_id;sensor_type;location;lat;lon;timestamp;P1;durP1;ratioP1;P2;durP2;ratioP2
35839;SDS011;35514;50.504;30.500;2023-09-08T00:01:13;13.07;;;3.38;;
35839;SDS011;35514;50.504;30.500;2023-09-08T00:03:42;11.48;;;3.55;;
35839;SDS011;35514;50.504;30.500;2023-09-08T00:06:10;7.90;;;3.22;;
35839;SDS011;35514;50.504;30.500;2023-09-08T00:08:38;8.25;;;3.33;;
35839;SDS011;35514;50.504;30.500;2023-09-08T00:11:06;12.68;;;3.95;;
35839;SDS011;35514;50.504;30.500;2023-09-08T00:13:34;9.20;;;2.95;;
35839;SDS011;35514;50.504;30.500;2023-09-08T00:16:02;10.77;;;3.53;;
35839;SDS011;35514;50.504;30.500;2023-09-08T00:18:30;10.60;;;3.35;;
35839;SDS011;35514;50.504;30.500;2023-09-08T00:20:59;8.68;;;3.67;;
35839;SDS011;35514;50.504;30.500;2023-09-08T00:23:29;8.25;;;3.10;;
35839;SDS011;35514;50.504;30.500;2023-09-08T00:25:57;17.67;;;3.63;;
35839;SDS011;35514;50.504;30.500;2023-09-08T00:28:26;11.35;;;3.40;;
35839;SDS011;35514;50.504;30.500;2023-09-08T00:30:53;9.07;;;3.67;;
35839;SDS011;35514;50.504;30.500;2023-09-08T00:33:21;10.23;;;4.07;;
35839;SDS011;35514;50.504;30.500;2023-09-08T00:35:50;7.47;;;4.18;;
35839;SDS011;35514;50.504;30.500;2023-09-08T00:38:19;6.90;;;3.53;;
35839;SDS011;35514;50.504;30.500;2023-09-08T00:40:47;9.82;;;3.80;;
35839;SDS011;35514;50.504;30.500;2023-09-08T00:43:16;8.98;;;3.35;;
35839;SDS011;35514;50.504;30.500;2023-09-08T00:45:44;14.32;;;3.53;;
35839;SDS011;35514;50.504;30.500;2023-09-08T00:48:13;12.02;;;3.40;;
35839;SDS011;35514;50.504;30.500;2023-09-08T00:50:43;11.70;;;4.60;;
35839;SDS011;35514;50.504;30.500;2023-09-08T00:53:11;8.50;;;3.50;;
35839;SDS011;35514;50.504;30.500;2023-09-08T00:55:41;11.30;;;2.97;;
35839;SDS011;35514;50.504;30.500;2023-09-08T00:58:11;19.13;;;4.30;;
35839;SDS011;35514;50.504;30.500;2023-09-08T01:00:39;9.13;;;3.67;;
35839;SDS011;35514;50.504;30.500;2023-09-08T01:03:09;13.77;;;4.07;;
35839;SDS011;35514;50.504;30.500;2023-09-08T01:05:37;8.43;;;3.70;;
35839;SDS011;35514;50.504;30.500;2023-09-08T01:08:05;10.45;;;3.72;;
35839;SDS011;35514;50.504;30.500;2023-09-08T01:10:34;8.00;;;3.10;;
35839;SDS011;35514;50.504;30.500;2023-09-08T01:13:05;9.48;;;3.70;;
35839;SDS011;35514;50.504;30.500;2023-09-08T01:15:32;13.88;;;4.10;;
35839;SDS011;35514;50.504;30.500;2023-09-08T01:18:00;14.27;;;3.90;;
35839;SDS011;35514;50.504;30.500;2023-09-08T01:20:30;9.77;;;3.33;;
35839;SDS011;35514;50.504;30.500;2023-09-08T01:23:03;10.52;;;4.15;;
35839;SDS011;35514;50.504;30.500;2023-09-08T01:25:35;13.07;;;5.03;;
35839;SDS011;35514;50.504;30.500;2023-09-08T01:28:03;10.05;;;4.18;;
35839;SDS011;35514;50.504;30.500;2023-09-08T01:30:34;8.88;;;3.38;;
35839;SDS011;35514;50.504;30.500;2023-09-08T01:33:03;19.88;;;5.00;;
35839;SDS011;35514;50.504;30.500;2023-09-08T01:35:31;10.00;;;3.72;;
35839;SDS011;35514;50.504;30.500;2023-09-08T01:37:59;11.00;;;4.20;;
35839;SDS011;35514;50.504;30.500;2023-09-08T01:40:26;15.57;;;5.70;;
35839;SDS011;35514;50.504;30.500;2023-09-08T01:42:56;7.63;;;3.53;;
35839;SDS011;35514;50.504;30.500;2023-09-08T01:45:24;14.20;;;4.07;;
35839;SDS011;35514;50.504;30.500;2023-09-08T01:47:51;15.35;;;3.53;;
35839;SDS011;35514;50.504;30.500;2023-09-08T01:50:21;7.78;;;3.50;;
35839;SDS011;35514;50.504;30.500;2023-09-08T01:52:52;10.23;;;3.80;;
35839;SDS011;35514;50.504;30.500;2023-09-08T01:55:22;8.52;;;3.60;;
35839;SDS011;35514;50.504;30.500;2023-09-08T01:57:49;20.55;;;4.15;;
35839;SDS011;35514;50.504;30.500;2023-09-08T02:00:19;6.93;;;3.30;;
35839;SDS011;35514;50.504;30.500;2023-09-08T02:02:46;8.93;;;3.45;;
35839;SDS011;35514;50.504;30.500;2023-09-08T02:05:14;8.95;;;3.13;;
35839;SDS011;35514;50.504;30.500;2023-09-08T02:07:42;15.77;;;4.80;;
35839;SDS011;35514;50.504;30.500;2023-09-08T02:10:10;8.15;;;3.15;;
35839;SDS011;35514;50.504;30.500;2023-09-08T02:12:38;9.88;;;3.35;;
35839;SDS011;35514;50.504;30.500;2023-09-08T02:15:06;9.05;;;3.03;;
35839;SDS011;35514;50.504;30.500;2023-09-08T02:17:37;16.08;;;4.05;;
35839;SDS011;35514;50.504;30.500;2023-09-08T02:20:05;10.88;;;3.55;;
35839;SDS011;35514;50.504;30.500;2023-09-08T02:22:33;11.48;;;3.83;;
35839;SDS011;35514;50.504;30.500;2023-09-08T02:25:01;15.73;;;4.80;;
35839;SDS011;35514;50.504;30.500;2023-09-08T02:27:31;9.60;;;3.58;;
35839;SDS011;35514;50.504;30.500;2023-09-08T02:29:58;13.63;;;5.78;;
35839;SDS011;35514;50.504;30.500;2023-09-08T02:32:26;16.95;;;3.80;;
35839;SDS011;35514;50.504;30.500;2023-09-08T02:34:56;13.50;;;4.70;;
35839;SDS011;35514;50.504;30.500;2023-09-08T02:37:23;11.13;;;4.50;;
35839;SDS011;35514;50.504;30.500;2023-09-08T02:39:51;10.88;;;3.92;;
35839;SDS011;35514;50.504;30.500;2023-09-08T02:42:19;8.88;;;3.80;;
35839;SDS011;35514;50.504;30.500;2023-09-08T02:44:47;12.00;;;4.75;;
35839;SDS011;35514;50.504;30.500;2023-09-08T02:47:15;13.45;;;4.20;;
35839;SDS011;35514;50.504;30.500;2023-09-08T02:49:42;9.68;;;4.63;;
35839;SDS011;35514;50.504;30.500;2023-09-08T02:52:13;9.63;;;4.72;;
35839;SDS011;35514;50.504;30.500;2023-09-08T02:54:41;13.23;;;5.38;;
35839;SDS011;35514;50.504;30.500;2023-09-08T02:57:09;13.55;;;5.32;;
35839;SDS011;35514;50.504;30.500;2023-09-08T02:59:37;13.82;;;5.43;;
35839;SDS011;35514;50.504;30.500;2023-09-08T03:02:06;13.77;;;5.97;;
35839;SDS011;35514;50.504;30.500;2023-09-08T03:04:33;17.50;;;6.65;;
35839;SDS011;35514;50.504;30.500;2023-09-08T03:07:01;18.75;;;6.63;;
35839;SDS011;35514;50.504;30.500;2023-09-08T03:09:30;13.60;;;5.85;;
35839;SDS011;35514;50.504;30.500;2023-09-08T03:11:58;18.02;;;6.55;;
35839;SDS011;35514;50.504;30.500;2023-09-08T03:14:26;18.08;;;6.75;;
35839;SDS011;35514;50.504;30.500;2023-09-08T03:16:54;16.00;;;7.15;;
35839;SDS011;35514;50.504;30.500;2023-09-08T03:19:22;17.05;;;8.15;;
35839;SDS011;35514;50.504;30.500;2023-09-08T03:21:50;23.08;;;8.25;;
35839;SDS011;35514;50.504;30.500;2023-09-08T03:24:18;16.30;;;7.90;;
35839;SDS011;35514;50.504;30.500;2023-09-08T03:26:47;17.75;;;8.27;;
35839;SDS011;35514;50.504;30.500;2023-09-08T03:29:15;14.55;;;7.45;;
35839;SDS011;35514;50.504;30.500;2023-09-08T03:31:43;19.25;;;7.63;;
35839;SDS011;35514;50.504;30.500;2023-09-08T03:34:11;16.48;;;6.60;;
35839;SDS011;35514;50.504;30.500;2023-09-08T03:36:53;17.17;;;7.55;;
35839;SDS011;35514;50.504;30.500;2023-09-08T03:39:21;16.48;;;6.50;;
35839;SDS011;35514;50.504;30.500;2023-09-08T03:41:50;14.80;;;6.45;;
35839;SDS011;35514;50.504;30.500;2023-09-08T03:44:18;20.13;;;6.60;;
35839;SDS011;35514;50.504;30.500;2023-09-08T03:46:46;18.00;;;6.97;;
35839;SDS011;35514;50.504;30.500;2023-09-08T03:49:14;11.07;;;6.22;;
35839;SDS011;35514;50.504;30.500;2023-09-08T03:51:42;18.48;;;6.50;;
35839;SDS011;35514;50.504;30.500;2023-09-08T03:54:15;14.82;;;6.57;;
35839;SDS011;35514;50.504;30.500;2023-09-08T03:56:43;13.00;;;6.80;;
35839;SDS011;35514;50.504;30.500;2023-09-08T03:59:14;13.75;;;6.82;;
35839;SDS011;35514;50.504;30.500;2023-09-08T04:01:42;15.52;;;7.25;;
35839;SDS011;35514;50.504;30.500;2023-09-08T04:04:10;24.90;;;7.55;;
35839;SDS011;35514;50.504;30.500;2023-09-08T04:06:40;17.67;;;7.93;;
35839;SDS011;35514;50.504;30.500;2023-09-08T04:09:08;17.27;;;7.78;;
35839;SDS011;35514;50.504;30.500;2023-09-08T04:11:36;20.63;;;7.10;;
35839;SDS011;35514;50.504;30.500;2023-09-08T04:14:04;24.33;;;7.88;;
35839;SDS011;35514;50.504;30.500;2023-09-08T04:16:34;16.75;;;7.07;;
35839;SDS011;35514;50.504;30.500;2023-09-08T04:19:01;15.07;;;7.30;;
35839;SDS011;35514;50.504;30.500;2023-09-08T04:21:29;14.80;;;6.72;;
35839;SDS011;35514;50.504;30.500;2023-09-08T04:23:57;19.23;;;6.53;;
35839;SDS011;35514;50.504;30.500;2023-09-08T04:26:25;17.58;;;6.82;;
35839;SDS011;35514;50.504;30.500;2023-09-08T04:28:53;19.95;;;7.20;;
35839;SDS011;35514;50.504;30.500;2023-09-08T04:31:21;15.55;;;6.28;;
35839;SDS011;35514;50.504;30.500;2023-09-08T04:33:50;21.40;;;6.00;;
35839;SDS011;35514;50.504;30.500;2023-09-08T04:36:19;15.63;;;4.80;;
35839;SDS011;35514;50.504;30.500;2023-09-08T04:38:47;13.70;;;4.57;;
35839;SDS011;35514;50.504;30.500;2023-09-08T04:41:15;11.27;;;4.45;;
35839;SDS011;35514;50.504;30.500;2023-09-08T04:43:43;11.85;;;4.22;;
35839;SDS011;35514;50.504;30.500;2023-09-08T04:46:10;9.52;;;3.30;;
35839;SDS011;35514;50.504;30.500;2023-09-08T04:48:38;17.55;;;3.65;;
35839;SDS011;35514;50.504;30.500;2023-09-08T04:51:09;16.85;;;4.18;;
35839;SDS011;35514;50.504;30.500;2023-09-08T04:53:37;14.52;;;3.50;;
35839;SDS011;35514;50.504;30.500;2023-09-08T04:56:04;6.30;;;2.78;;
35839;SDS011;35514;50.504;30.500;2023-09-08T04:58:32;9.10;;;2.80;;
35839;SDS011;35514;50.504;30.500;2023-09-08T05:01:00;7.35;;;3.05;;
35839;SDS011;35514;50.504;30.500;2023-09-08T05:03:28;10.15;;;3.20;;
35839;SDS011;35514;50.504;30.500;2023-09-08T05:05:57;11.13;;;2.97;;
35839;SDS011;35514;50.504;30.500;2023-09-08T05:08:26;10.70;;;3.03;;
35839;SDS011;35514;50.504;30.500;2023-09-08T05:10:54;14.18;;;3.75;;
35839;SDS011;35514;50.504;30.500;2023-09-08T05:13:22;10.30;;;3.30;;
35839;SDS011;35514;50.504;30.500;2023-09-08T05:15:56;7.18;;;2.80;;
35839;SDS011;35514;50.504;30.500;2023-09-08T05:18:26;9.23;;;4.18;;
35839;SDS011;35514;50.504;30.500;2023-09-08T05:20:54;12.38;;;4.03;;
35839;SDS011;35514;50.504;30.500;2023-09-08T05:23:24;9.23;;;3.67;;
35839;SDS011;35514;50.504;30.500;2023-09-08T05:25:53;7.88;;;3.97;;
35839;SDS011;35514;50.504;30.500;2023-09-08T05:28:21;9.48;;;4.50;;
35839;SDS011;35514;50.504;30.500;2023-09-08T05:30:50;12.23;;;4.07;;
35839;SDS011;35514;50.504;30.500;2023-09-08T05:33:18;13.95;;;4.97;;
35839;SDS011;35514;50.504;30.500;2023-09-08T05:35:46;8.75;;;3.33;;
35839;SDS011;35514;50.504;30.500;2023-09-08T05:38:14;10.70;;;3.70;;
35839;SDS011;35514;50.504;30.500;2023-09-08T05:40:42;10.32;;;4.55;;
35839;SDS011;35514;50.504;30.500;2023-09-08T05:43:11;7.97;;;4.25;;
35839;SDS011;35514;50.504;30.500;2023-09-08T05:45:39;9.65;;;4.32;;
35839;SDS011;35514;50.504;30.500;2023-09-08T05:48:06;9.57;;;3.58;;
35839;SDS011;35514;50.504;30.500;2023-09-08T05:50:34;7.28;;;3.10;;
35839;SDS011;35514;50.504;30.500;2023-09-08T05:53:02;7.35;;;3.08;;
35839;SDS011;35514;50.504;30.500;2023-09-08T05:55:30;10.55;;;3.33;;
35839;SDS011;35514;50.504;30.500;2023-09-08T05:57:58;9.23;;;3.22;;
35839;SDS011;35514;50.504;30.500;2023-09-08T06:00:28;9.68;;;2.60;;
35839;SDS011;35514;50.504;30.500;2023-09-08T06:02:55;11.73;;;3.30;;
35839;SDS011;35514;50.504;30.500;2023-09-08T06:05:23;5.78;;;2.75;;
35839;SDS011;35514;50.504;30.500;2023-09-08T06:07:51;8.50;;;3.00;;
35839;SDS011;35514;50.504;30.500;2023-09-08T06:10:32;7.57;;;2.30;;
35839;SDS011;35514;50.504;30.500;2023-09-08T06:13:00;7.82;;;2.70;;
35839;SDS011;35514;50.504;30.500;2023-09-08T06:15:29;9.32;;;2.67;;
35839;SDS011;35514;50.504;30.500;2023-09-08T06:17:57;10.80;;;2.63;;
35839;SDS011;35514;50.504;30.500;2023-09-08T06:20:25;9.15;;;3.53;;
35839;SDS011;35514;50.504;30.500;2023-09-08T06:22:53;4.38;;;2.30;;
35839;SDS011;35514;50.504;30.500;2023-09-08T06:25:21;5.40;;;2.40;;
35839;SDS011;35514;50.504;30.500;2023-09-08T06:27:49;7.72;;;3.00;;
35839;SDS011;35514;50.504;30.500;2023-09-08T06:30:17;13.98;;;2.28;;
35839;SDS011;35514;50.504;30.500;2023-09-08T06:32:46;9.95;;;3.22;;
35839;SDS011;35514;50.504;30.500;2023-09-08T06:35:14;4.80;;;2.22;;
35839;SDS011;35514;50.504;30.500;2023-09-08T06:37:42;9.95;;;2.38;;
35839;SDS011;35514;50.504;30.500;2023-09-08T06:40:10;7.70;;;2.33;;
35839;SDS011;35514;50.504;30.500;2023-09-08T06:42:38;4.50;;;2.47;;
35839;SDS011;35514;50.504;30.500;2023-09-08T06:45:06;6.72;;;2.83;;
35839;SDS011;35514;50.504;30.500;2023-09-08T06:47:34;10.10;;;2.67;;
35839;SDS011;35514;50.504;30.500;2023-09-08T06:50:04;6.78;;;3.47;;
35839;SDS011;35514;50.504;30.500;2023-09-08T06:52:33;6.65;;;2.97;;
35839;SDS011;35514;50.504;30.500;2023-09-08T06:55:01;13.13;;;3.25;;
35839;SDS011;35514;50.504;30.500;2023-09-08T06:57:29;14.88;;;3.33;;
35839;SDS011;35514;50.504;30.500;2023-09-08T06:59:57;10.43;;;3.25;;
35839;SDS011;35514;50.504;30.500;2023-09-08T07:02:25;8.18;;;3.15;;
35839;SDS011;35514;50.504;30.500;2023-09-08T07:04:53;7.20;;;2.95;;
35839;SDS011;35514;50.504;30.500;2023-09-08T07:07:23;8.88;;;4.05;;
35839;SDS011;35514;50.504;30.500;2023-09-08T07:09:51;6.10;;;2.50;;
35839;SDS011;35514;50.504;30.500;2023-09-08T07:12:19;7.47;;;2.78;;
35839;SDS011;35514;50.504;30.500;2023-09-08T07:14:47;15.25;;;3.55;;
35839;SDS011;35514;50.504;30.500;2023-09-08T07:17:15;7.47;;;2.03;;
35839;SDS011;35514;50.504;30.500;2023-09-08T07:19:43;6.05;;;2.10;;
35839;SDS011;35514;50.504;30.500;2023-09-08T07:22:11;8.15;;;2.22;;
35839;SDS011;35514;50.504;30.500;2023-09-08T07:24:40;2.67;;;1.33;;
35839;SDS011;35514;50.504;30.500;2023-09-08T07:27:08;5.22;;;1.85;;
35839;SDS011;35514;50.504;30.500;2023-09-08T07:29:36;5.93;;;2.00;;
35839;SDS011;35514;50.504;30.500;2023-09-08T07:32:04;4.13;;;1.40;;
35839;SDS011;35514;50.504;30.500;2023-09-08T07:34:32;3.58;;;1.23;;
35839;SDS011;35514;50.504;30.500;2023-09-08T07:37:00;3.92;;;1.48;;
35839;SDS011;35514;50.504;30.500;2023-09-08T07:39:28;2.75;;;1.15;;
35839;SDS011;35514;50.504;30.500;2023-09-08T07:41:58;3.42;;;1.13;;
35839;SDS011;35514;50.504;30.500;2023-09-08T07:44:27;6.05;;;1.17;;
35839;SDS011;35514;50.504;30.500;2023-09-08T07:46:55;3.20;;;1.20;;
35839;SDS011;35514;50.504;30.500;2023-09-08T07:49:23;4.80;;;1.17;;
35839;SDS011;35514;50.504;30.500;2023-09-08T07:51:51;4.95;;;0.98;;
35839;SDS011;35514;50.504;30.500;2023-09-08T07:54:18;4.05;;;0.90;;
35839;SDS011;35514;50.504;30.500;2023-09-08T07:56:46;6.03;;;1.00;;
35839;SDS011;35514;50.504;30.500;2023-09-08T07:59:16;3.55;;;1.50;;
35839;SDS011;35514;50.504;30.500;2023-09-08T08:01:43;4.00;;;1.15;;
35839;SDS011;35514;50.504;30.500;2023-09-08T08:04:11;2.05;;;0.82;;
35839;SDS011;35514;50.504;30.500;2023-09-08T08:06:39;3.42;;;1.00;;
35839;SDS011;35514;50.504;30.500;2023-09-08T08:09:07;2.78;;;1.00;;
35839;SDS011;35514;50.504;30.500;2023-09-08T08:11:35;4.40;;;1.40;;
35839;SDS011;35514;50.504;30.500;2023-09-08T08:14:03;2.97;;;1.13;;
35839;SDS011;35514;50.504;30.500;2023-09-08T08:16:32;3.58;;;0.88;;
35839;SDS011;35514;50.504;30.500;2023-09-08T08:19:00;5.65;;;1.40;;
35839;SDS011;35514;50.504;30.500;2023-09-08T08:21:29;4.40;;;0.80;;
35839;SDS011;35514;50.504;30.500;2023-09-08T08:23:57;2.90;;;0.73;;
35839;SDS011;35514;50.504;30.500;2023-09-08T08:26:25;1.33;;;0.82;;
35839;SDS011;35514;50.504;30.500;2023-09-08T08:28:56;1.65;;;0.80;;
35839;SDS011;35514;50.504;30.500;2023-09-08T08:31:24;2.80;;;0.80;;
35839;SDS011;35514;50.504;30.500;2023-09-08T08:33:53;1.33;;;0.85;;
35839;SDS011;35514;50.504;30.500;2023-09-08T08:36:21;1.70;;;0.85;;
35839;SDS011;35514;50.504;30.500;2023-09-08T08:38:49;1.55;;;0.90;;
35839;SDS011;35514;50.504;30.500;2023-09-08T08:41:17;1.88;;;0.95;;
35839;SDS011;35514;50.504;30.500;2023-09-08T08:43:45;4.00;;;1.00;;
35839;SDS011;35514;50.504;30.500;2023-09-08T08:46:13;2.38;;;0.93;;
35839;SDS011;35514;50.504;30.500;2023-09-08T08:48:42;1.35;;;0.70;;
35839;SDS011;35514;50.504;30.500;2023-09-08T08:51:12;7.78;;;1.02;;
35839;SDS011;35514;50.504;30.500;2023-09-08T08:53:40;4.75;;;0.90;;
35839;SDS011;35514;50.504;30.500;2023-09-08T08:56:09;4.13;;;1.00;;
35839;SDS011;35514;50.504;30.500;2023-09-08T08:58:37;4.47;;;0.85;;
35839;SDS011;35514;50.504;30.500;2023-09-08T09:01:06;3.55;;;0.73;;
35839;SDS011;35514;50.504;30.500;2023-09-08T09:03:35;7.90;;;0.70;;
35839;SDS011;35514;50.504;30.500;2023-09-08T09:06:04;2.85;;;1.17;;
35839;SDS011;35514;50.504;30.500;2023-09-08T09:08:34;2.10;;;0.70;;
35839;SDS011;35514;50.504;30.500;2023-09-08T09:11:03;4.78;;;1.00;;
35839;SDS011;35514;50.504;30.500;2023-09-08T09:13:31;5.28;;;1.17;;
35839;SDS011;35514;50.504;30.500;2023-09-08T09:15:59;4.88;;;0.93;;
35839;SDS011;35514;50.504;30.500;2023-09-08T09:18:30;3.70;;;1.00;;
35839;SDS011;35514;50.504;30.500;2023-09-08T09:20:58;4.80;;;1.00;;
35839;SDS011;35514;50.504;30.500;2023-09-08T09:23:27;2.53;;;1.17;;
35839;SDS011;35514;50.504;30.500;2023-09-08T09:25:58;2.08;;;1.10;;
35839;SDS011;35514;50.504;30.500;2023-09-08T09:28:27;6.13;;;0.88;;
35839;SDS011;35514;50.504;30.500;2023-09-08T09:30:56;4.25;;;0.90;;
35839;SDS011;35514;50.504;30.500;2023-09-08T09:33:25;1.98;;;0.90;;
35839;SDS011;35514;50.504;30.500;2023-09-08T09:35:54;3.97;;;0.93;;
35839;SDS011;35514;50.504;30.500;2023-09-08T09:38:22;1.98;;;1.02;;
35839;SDS011;35514;50.504;30.500;2023-09-08T09:40:50;2.40;;;0.80;;
35839;SDS011;35514;50.504;30.500;2023-09-08T09:43:20;2.45;;;0.95;;
35839;SDS011;35514;50.504;30.500;2023-09-08T09:45:52;1.98;;;0.98;;
35839;SDS011;35514;50.504;30.500;2023-09-08T09:48:21;3.03;;;0.88;;
35839;SDS011;35514;50.504;30.500;2023-09-08T09:50:49;1.80;;;0.80;;
35839;SDS011;35514;50.504;30.500;2023-09-08T09:53:17;2.55;;;0.70;;
35839;SDS011;35514;50.504;30.500;2023-09-08T09:55:45;1.30;;;0.73;;
35839;SDS011;35514;50.504;30.500;2023-09-08T09:58:13;1.88;;;0.73;;
35839;SDS011;35514;50.504;30.500;2023-09-08T10:00:43;1.30;;;0.63;;
35839;SDS011;35514;50.504;30.500;2023-09-08T10:03:15;1.95;;;0.70;;
35839;SDS011;35514;50.504;30.500;2023-09-08T10:05:43;3.22;;;0.75;;
35839;SDS011;35514;50.504;30.500;2023-09-08T10:08:13;2.45;;;0.60;;
35839;SDS011;35514;50.504;30.500;2023-09-08T10:10:45;2.83;;;1.13;;
35839;SDS011;35514;50.504;30.500;2023-09-08T10:13:14;1.13;;;0.60;;
35839;SDS011;35514;50.504;30.500;2023-09-08T10:15:47;1.75;;;0.90;;
35839;SDS011;35514;50.504;30.500;2023-09-08T10:18:16;3.63;;;0.77;;
35839;SDS011;35514;50.504;30.500;2023-09-08T10:20:45;2.38;;;0.93;;
35839;SDS011;35514;50.504;30.500;2023-09-08T10:23:16;3.85;;;1.02;;
35839;SDS011;35514;50.504;30.500;2023-09-08T10:25:47;1.58;;;0.95;;
35839;SDS011;35514;50.504;30.500;2023-09-08T10:28:21;2.53;;;0.90;;
35839;SDS011;35514;50.504;30.500;2023-09-08T10:30:50;2.78;;;1.45;;
35839;SDS011;35514;50.504;30.500;2023-09-08T10:33:19;5.15;;;1.50;;
35839;SDS011;35514;50.504;30.500;2023-09-08T10:35:47;2.63;;;1.05;;
35839;SDS011;35514;50.504;30.500;2023-09-08T10:38:21;1.52;;;0.50;;
35839;SDS011;35514;50.504;30.500;2023-09-08T10:40:49;4.88;;;1.00;;
35839;SDS011;35514;50.504;30.500;2023-09-08T10:43:17;3.20;;;0.85;;
35839;SDS011;35514;50.504;30.500;2023-09-08T10:45:45;2.40;;;0.70;;
35839;SDS011;35514;50.504;30.500;2023-09-08T10:48:16;2.70;;;0.82;;
35839;SDS011;35514;50.504;30.500;2023-09-08T10:50:46;1.83;;;0.90;;
35839;SDS011;35514;50.504;30.500;2023-09-08T10:53:15;6.07;;;0.98;;
35839;SDS011;35514;50.504;30.500;2023-09-08T10:55:44;4.03;;;1.20;;
35839;SDS011;35514;50.504;30.500;2023-09-08T10:58:35;1.73;;;0.80;;
35839;SDS011;35514;50.504;30.500;2023-09-08T11:01:05;1.98;;;0.85;;
35839;SDS011;35514;50.504;30.500;2023-09-08T11:03:45;3.03;;;0.98;;
35839;SDS011;35514;50.504;30.500;2023-09-08T11:06:28;1.67;;;0.80;;
35839;SDS011;35514;50.504;30.500;2023-09-08T11:08:57;1.40;;;0.73;;
35839;SDS011;35514;50.504;30.500;2023-09-08T11:11:33;3.17;;;0.73;;
35839;SDS011;35514;50.504;30.500;2023-09-08T11:14:01;1.50;;;0.85;;
35839;SDS011;35514;50.504;30.500;2023-09-08T11:16:29;4.25;;;0.80;;
35839;SDS011;35514;50.504;30.500;2023-09-08T11:19:01;5.25;;;1.40;;
35839;SDS011;35514;50.504;30.500;2023-09-08T11:21:31;2.65;;;0.73;;
35839;SDS011;35514;50.504;30.500;2023-09-08T11:24:01;2.00;;;0.88;;
35839;SDS011;35514;50.504;30.500;2023-09-08T11:26:32;2.58;;;0.77;;
35839;SDS011;35514;50.504;30.500;2023-09-08T11:29:00;2.85;;;0.70;;
35839;SDS011;35514;50.504;30.500;2023-09-08T11:31:28;3.35;;;1.15;;
35839;SDS011;35514;50.504;30.500;2023-09-08T11:33:56;1.85;;;0.98;;
35839;SDS011;35514;50.504;30.500;2023-09-08T11:36:27;1.58;;;0.90;;
35839;SDS011;35514;50.504;30.500;2023-09-08T11:38:56;4.38;;;1.00;;
35839;SDS011;35514;50.504;30.500;2023-09-08T11:41:24;6.50;;;1.05;;
35839;SDS011;35514;50.504;30.500;2023-09-08T11:43:52;3.05;;;0.77;;
35839;SDS011;35514;50.504;30.500;2023-09-08T11:46:20;1.17;;;0.70;;
35839;SDS011;35514;50.504;30.500;2023-09-08T11:48:49;3.58;;;0.88;;
35839;SDS011;35514;50.504;30.500;2023-09-08T11:51:17;2.55;;;0.98;;
35839;SDS011;35514;50.504;30.500;2023-09-08T11:53:51;6.43;;;1.30;;
35839;SDS011;35514;50.504;30.500;2023-09-08T11:56:19;1.50;;;0.80;;
35839;SDS011;35514;50.504;30.500;2023-09-08T11:58:47;1.67;;;1.02;;
35839;SDS011;35514;50.504;30.500;2023-09-08T12:01:15;1.70;;;0.80;;
35839;SDS011;35514;50.504;30.500;2023-09-08T12:03:53;5.32;;;1.10;;
35839;SDS011;35514;50.504;30.500;2023-09-08T12:06:23;2.10;;;1.23;;
35839;SDS011;35514;50.504;30.500;2023-09-08T12:08:53;4.40;;;1.40;;
35839;SDS011;35514;50.504;30.500;2023-09-08T12:11:21;2.97;;;2.38;;
35839;SDS011;35514;50.504;30.500;2023-09-08T12:13:49;10.15;;;3.78;;
35839;SDS011;35514;50.504;30.500;2023-09-08T12:16:17;7.60;;;4.20;;
35839;SDS011;35514;50.504;30.500;2023-09-08T12:18:45;9.85;;;4.65;;
35839;SDS011;35514;50.504;30.500;2023-09-08T12:21:14;9.95;;;4.57;;
35839;SDS011;35514;50.504;30.500;2023-09-08T12:23:49;6.75;;;4.38;;
35839;SDS011;35514;50.504;30.500;2023-09-08T12:26:19;7.72;;;4.28;;
35839;SDS011;35514;50.504;30.500;2023-09-08T12:28:47;7.80;;;4.18;;
35839;SDS011;35514;50.504;30.500;2023-09-08T12:31:16;8.85;;;3.45;;
35839;SDS011;35514;50.504;30.500;2023-09-08T12:33:44;11.20;;;3.97;;
35839;SDS011;35514;50.504;30.500;2023-09-08T12:36:12;7.82;;;4.00;;
35839;SDS011;35514;50.504;30.500;2023-09-08T12:38:40;6.30;;;2.28;;
35839;SDS011;35514;50.504;30.500;2023-09-08T12:41:08;3.90;;;2.00;;
35839;SDS011;35514;50.504;30.500;2023-09-08T12:43:37;5.72;;;2.92;;
35839;SDS011;35514;50.504;30.500;2023-09-08T12:46:05;7.32;;;2.70;;
35839;SDS011;35514;50.504;30.500;2023-09-08T12:48:33;5.20;;;2.33;;
35839;SDS011;35514;50.504;30.500;2023-09-08T12:51:01;5.88;;;2.50;;
35839;SDS011;35514;50.504;30.500;2023-09-08T12:53:36;7.55;;;1.85;;
35839;SDS011;35514;50.504;30.500;2023-09-08T12:56:04;5.18;;;1.98;;
35839;SDS011;35514;50.504;30.500;2023-09-08T12:58:32;5.35;;;2.13;;
35839;SDS011;35514;50.504;30.500;2023-09-08T13:01:02;4.28;;;2.13;;
35839;SDS011;35514;50.504;30.500;2023-09-08T13:03:33;5.07;;;2.33;;
35839;SDS011;35514;50.504;30.500;2023-09-08T13:06:01;6.28;;;2.22;;
35839;SDS011;35514;50.504;30.500;2023-09-08T13:08:28;3.50;;;2.20;;
35839;SDS011;35514;50.504;30.500;2023-09-08T13:10:56;4.65;;;1.90;;
35839;SDS011;35514;50.504;30.500;2023-09-08T13:13:24;4.55;;;2.15;;
35839;SDS011;35514;50.504;30.500;2023-09-08T13:15:54;9.05;;;2.22;;
35839;SDS011;35514;50.504;30.500;2023-09-08T13:18:26;7.10;;;1.75;;
35839;SDS011;35514;50.504;30.500;2023-09-08T13:20:54;6.10;;;1.60;;
35839;SDS011;35514;50.504;30.500;2023-09-08T13:23:22;6.47;;;2.33;;
35839;SDS011;35514;50.504;30.500;2023-09-08T13:25:50;4.85;;;2.00;;
35839;SDS011;35514;50.504;30.500;2023-09-08T13:28:17;4.07;;;1.85;;
35839;SDS011;35514;50.504;30.500;2023-09-08T13:30:45;2.45;;;1.50;;
35839;SDS011;35514;50.504;30.500;2023-09-08T13:33:13;3.05;;;2.20;;
35839;SDS011;35514;50.504;30.500;2023-09-08T13:35:42;4.82;;;1.92;;
35839;SDS011;35514;50.504;30.500;2023-09-08T13:38:10;7.68;;;2.05;;
35839;SDS011;35514;50.504;30.500;2023-09-08T13:40:38;3.97;;;1.80;;
35839;SDS011;35514;50.504;30.500;2023-09-08T13:43:13;7.40;;;2.00;;
35839;SDS011;35514;50.504;30.500;2023-09-08T13:45:41;3.63;;;1.83;;
35839;SDS011;35514;50.504;30.500;2023-09-08T13:48:10;3.38;;;1.90;;
35839;SDS011;35514;50.504;30.500;2023-09-08T13:50:38;4.35;;;1.90;;
35839;SDS011;35514;50.504;30.500;2023-09-08T13:53:11;8.32;;;2.97;;
35839;SDS011;35514;50.504;30.500;2023-09-08T13:55:40;6.50;;;2.83;;
35839;SDS011;35514;50.504;30.500;2023-09-08T13:58:10;9.23;;;2.33;;
35839;SDS011;35514;50.504;30.500;2023-09-08T14:00:39;2.90;;;1.63;;
35839;SDS011;35514;50.504;30.500;2023-09-08T14:03:11;5.88;;;1.50;;
35839;SDS011;35514;50.504;30.500;2023-09-08T14:05:41;2.88;;;1.48;;
35839;SDS011;35514;50.504;30.500;2023-09-08T14:08:13;4.15;;;1.88;;
35839;SDS011;35514;50.504;30.500;2023-09-08T14:10:54;9.80;;;1.80;;
35839;SDS011;35514;50.504;30.500;2023-09-08T14:13:24;4.43;;;2.20;;
35839;SDS011;35514;50.504;30.500;2023-09-08T14:15:52;2.58;;;1.42;;
35839;SDS011;35514;50.504;30.500;2023-09-08T14:18:20;3.95;;;1.60;;
35839;SDS011;35514;50.504;30.500;2023-09-08T14:20:48;5.13;;;1.80;;
35839;SDS011;35514;50.504;30.500;2023-09-08T14:23:20;4.97;;;2.10;;
35839;SDS011;35514;50.504;30.500;2023-09-08T14:25:48;4.07;;;1.98;;
35839;SDS011;35514;50.504;30.500;2023-09-08T14:28:15;4.90;;;1.60;;
35839;SDS011;35514;50.504;30.500;2023-09-08T14:30:43;5.38;;;1.88;;
35839;SDS011;35514;50.504;30.500;2023-09-08T14:33:11;3.13;;;1.48;;
35839;SDS011;35514;50.504;30.500;2023-09-08T14:35:41;2.88;;;1.80;;
35839;SDS011;35514;50.504;30.500;2023-09-08T14:38:08;6.90;;;1.80;;
35839;SDS011;35514;50.504;30.500;2023-09-08T14:40:38;8.02;;;1.30;;